Time;durP1;ratioP1;P1;durP2;ratioP2;P2;SDS_P1;SDS_P2;PMS_P1;PMS_P2;Temp;Humidity;BMP_temperature;BMP_pressure;BME280_temperature;BME280_humidity;BME280_pressure;Samples;Min_cycle;Max_cycle;Signal;HPM_P1;HPM_P2
2022/01/25 10:58:43;;;;;;;2.65;2.22;;;;;;;;;;1410330;33;21907;-60
2022/01/25 10:59:37;;;;;;;2.47;2.28;;;;;;;;;;1622149;29;21736;-59
2022/01/25 11:00:34;;;;;;;1.80;1.67;;;;;;;;;;1626051;29;25618;-59
2022/01/25 11:01:36;;;;;;;4.32;1.50;;;;;;;;;;1623382;29;23021;-57
2022/01/25 11:02:30;;;;;;;1.83;1.73;;;;;;;;;;1627657;29;22266;-62
2022/01/25 11:03:31;;;;;;;4.05;1.80;;;;;;;;;;1621046;29;22327;-59
2022/01/25 11:04:38;;;;;;;1.67;1.58;;;;;;;;;;1627314;29;22144;-57
2022/01/25 11:05:58;;;;;;;1.70;1.60;;;;;;;;;;1408108;33;23023;-61
2022/01/25 11:07:01;;;;;;;5.93;1.50;;;;;;;;;;1635710;29;21814;-61
2022/01/25 11:07:53;;;;;;;3.13;1.90;;;;;;;;;;1627634;29;21690;-59
2022/01/25 11:08:49;;;;;;;1.95;1.63;;;;;;;;;;1632267;29;21637;-61
2022/01/25 11:11:00;;;;;;;3.40;1.70;;;;;;;;;;1402975;33;23256;-58
2022/01/25 11:12:00;;;;;;;1.80;1.70;;;;;;;;;;1619065;29;22515;-59
2022/01/25 11:13:03;;;;;;;1.65;1.48;;;;;;;;;;1620229;29;22512;-55
2022/01/25 11:14:00;;;;;;;1.40;1.30;;;;;;;;;;1608987;29;22219;-59
2022/01/25 11:14:57;;;;;;;1.88;1.55;;;;;;;;;;1595355;29;22486;-59
2022/01/25 11:15:53;;;;;;;1.70;1.60;;;;;;;;;;1597100;29;21671;-59
2022/01/25 11:16:53;;;;;;;3.15;1.70;;;;;;;;;;1619145;29;22547;-59
2022/01/25 11:17:47;;;;;;;2.75;1.70;;;;;;;;;;1597436;29;22206;-57
2022/01/25 11:18:44;;;;;;;1.60;1.50;;;;;;;;;;1591521;29;22278;-57
2022/01/25 11:19:38;;;;;;;3.65;1.50;;;;;;;;;;1594222;29;21877;-60
2022/01/25 11:20:31;;;;;;;1.50;1.35;;;;;;;;;;1593449;29;22275;-58
2022/01/25 11:21:25;;;;;;;1.83;1.50;;;;;;;;;;1607231;29;21957;-59
2022/01/25 11:22:19;;;;;;;5.28;1.48;;;;;;;;;;1615673;29;22723;-58
2022/01/25 11:23:14;;;;;;;2.10;1.90;;;;;;;;;;1602577;29;22419;-57
2022/01/25 11:24:08;;;;;;;2.05;1.65;;;;;;;;;;1598025;29;22978;-58
2022/01/25 11:25:05;;;;;;;3.63;1.98;;;;;;;;;;1594582;29;22386;-58
2022/01/25 11:26:02;;;;;;;2.67;2.10;;;;;;;;;;1614268;29;22165;-58
2022/01/25 11:26:56;;;;;;;4.32;1.90;;;;;;;;;;1616096;29;22127;-59
2022/01/25 11:27:57;;;;;;;8.95;1.80;;;;;;;;;;1620890;29;22655;-58
2022/01/25 11:28:52;;;;;;;1.70;1.60;;;;;;;;;;1603395;29;21989;-58
2022/01/25 11:29:47;;;;;;;1.92;1.73;;;;;;;;;;1592417;29;22640;-58
2022/01/25 11:30:46;;;;;;;2.63;1.85;;;;;;;;;;1611412;29;22056;-59
2022/01/25 11:31:45;;;;;;;2.10;1.90;;;;;;;;;;1605046;29;22312;-58
2022/01/25 11:32:46;;;;;;;3.45;2.03;;;;;;;;;;1616749;29;22258;-59
2022/01/25 11:33:46;;;;;;;3.58;1.60;;;;;;;;;;1612126;29;22590;-60
2022/01/25 11:34:41;;;;;;;2.33;1.80;;;;;;;;;;1600155;29;22175;-60
2022/01/25 11:35:37;;;;;;;1.70;1.60;;;;;;;;;;1603914;29;22038;-61
2022/01/25 11:36:33;;;;;;;1.52;1.42;;;;;;;;;;1606584;29;22182;-58
2022/01/25 11:37:36;;;;;;;1.75;1.65;;;;;;;;;;1600528;29;22012;-58
2022/01/25 11:38:33;;;;;;;1.85;1.52;;;;;;;;;;1614719;29;23482;-58
2022/01/25 11:39:30;;;;;;;1.58;1.48;;;;;;;;;;1629598;29;21932;-60
2022/01/25 11:40:30;;;;;;;3.75;2.30;;;;;;;;;;1607669;29;21729;-55
2022/01/25 11:41:26;;;;;;;2.83;1.95;;;;;;;;;;1598888;29;21796;-58
2022/01/25 11:42:25;;;;;;;3.25;1.95;;;;;;;;;;1609044;29;22096;-58
2022/01/25 11:43:19;;;;;;;6.10;1.80;;;;;;;;;;1601520;29;22859;-58
2022/01/25 11:44:15;;;;;;;2.65;1.70;;;;;;;;;;1589385;29;22072;-58
2022/01/25 11:45:13;;;;;;;2.30;1.65;;;;;;;;;;1600725;29;22756;-58
2022/01/25 11:46:08;;;;;;;1.83;1.70;;;;;;;;;;1601923;29;21874;-57
2022/01/25 11:47:11;;;;;;;1.88;1.77;;;;;;;;;;1608637;29;22429;-57
2022/01/25 11:48:04;;;;;;;2.53;1.42;;;;;;;;;;1606686;29;22449;-58
2022/01/25 11:49:06;;;;;;;1.60;1.50;;;;;;;;;;1607160;29;21896;-60
2022/01/25 11:50:02;;;;;;;1.65;1.55;;;;;;;;;;1609745;29;21700;-56
2022/01/25 11:50:55;;;;;;;1.55;1.45;;;;;;;;;;1598449;29;22037;-58
2022/01/25 11:52:07;;;;;;;1.67;1.55;;;;;;;;;;1615590;29;22894;-61
2022/01/25 11:53:07;;;;;;;2.55;1.38;;;;;;;;;;1612366;29;21790;-59
2022/01/25 11:54:08;;;;;;;2.35;2.00;;;;;;;;;;1612704;29;23002;-61
2022/01/25 11:55:26;;;;;;;3.28;1.73;;;;;;;;;;1590031;29;22881;-59
2022/01/25 11:56:20;;;;;;;1.80;1.63;;;;;;;;;;1592019;29;26443;-58
2022/01/25 11:57:17;;;;;;;3.08;1.90;;;;;;;;;;1601610;29;22896;-59
2022/01/25 11:58:13;;;;;;;2.25;2.05;;;;;;;;;;1587117;29;26839;-59
2022/01/25 11:59:06;;;;;;;2.00;1.80;;;;;;;;;;1597344;29;22426;-61
2022/01/25 12:00:48;;;;;;;3.40;3.10;;;;;;;;;;1403686;33;22204;-62
2022/01/25 12:01:40;;;;;;;2.58;2.33;;;;;;;;;;1614505;29;22123;-61
2022/01/25 12:02:46;;;;;;;2.42;2.22;;;;;;;;;;1618071;29;22378;-59
2022/01/25 12:03:44;;;;;;;1.60;1.50;;;;;;;;;;1605896;29;22400;-59
2022/01/25 12:04:44;;;;;;;5.00;1.58;;;;;;;;;;1600469;29;21965;-59
2022/01/25 12:05:56;;;;;;;1.73;1.63;;;;;;;;;;1618528;29;26171;-59
2022/01/25 12:07:01;;;;;;;2.08;1.90;;;;;;;;;;1610878;29;22200;-61
2022/01/25 12:08:10;;;;;;;1.40;1.30;;;;;;;;;;1620722;29;22624;-60
2022/01/25 12:09:13;;;;;;;1.70;1.48;;;;;;;;;;1613928;29;22077;-59
2022/01/25 12:10:39;;;;;;;1.92;1.50;;;;;;;;;;1616288;29;21731;-59
2022/01/25 12:11:36;;;;;;;1.80;1.35;;;;;;;;;;1620717;29;21708;-60
2022/01/25 12:12:29;;;;;;;3.63;1.60;;;;;;;;;;1608444;29;22269;-60
2022/01/25 12:13:29;;;;;;;1.20;1.20;;;;;;;;;;1598693;29;21864;-59
2022/01/25 12:14:33;;;;;;;2.08;1.98;;;;;;;;;;1594827;29;21909;-62
2022/01/25 12:15:25;;;;;;;1.77;1.67;;;;;;;;;;1605506;29;21808;-61
2022/01/25 12:16:26;;;;;;;2.20;2.00;;;;;;;;;;1608257;29;22225;-59
2022/01/25 12:17:25;;;;;;;2.10;1.90;;;;;;;;;;1611141;29;22009;-56
2022/01/25 12:18:58;;;;;;;2.67;1.65;;;;;;;;;;1606064;29;23359;-64
2022/01/25 12:19:54;;;;;;;4.55;1.60;;;;;;;;;;1608158;29;22253;-63
2022/01/25 12:20:49;;;;;;;2.63;1.83;;;;;;;;;;1599710;29;26390;-63
2022/01/25 12:22:06;;;;;;;1.60;1.50;;;;;;;;;;1609992;29;22487;-65
2022/01/25 12:23:09;;;;;;;2.15;1.80;;;;;;;;;;1616883;29;22478;-67
2022/01/25 12:24:16;;;;;;;1.98;1.65;;;;;;;;;;1609731;29;22798;-64
2022/01/25 12:25:23;;;;;;;3.60;1.33;;;;;;;;;;1613474;29;22198;-63
2022/01/25 12:26:56;;;;;;;1.65;1.55;;;;;;;;;;1613826;29;23286;-65
2022/01/25 12:27:54;;;;;;;1.10;1.10;;;;;;;;;;1605889;29;27457;-63
2022/01/25 12:28:47;;;;;;;1.50;1.23;;;;;;;;;;1606596;29;21832;-65
2022/01/25 12:29:42;;;;;;;2.03;1.25;;;;;;;;;;1612600;29;22185;-64
2022/01/25 12:33:01;;;;;;;1.70;1.48;;;;;;;;;;1612491;29;23295;-62
2022/01/25 12:34:27;;;;;;;1.58;1.45;;;;;;;;;;1600311;29;22877;-63
2022/01/25 12:35:34;;;;;;;1.48;1.38;;;;;;;;;;1597675;29;21855;-64
2022/01/25 12:36:37;;;;;;;1.92;1.83;;;;;;;;;;1595558;29;22051;-63
2022/01/25 12:38:09;;;;;;;1.63;1.40;;;;;;;;;;1597101;29;22717;-63
2022/01/25 12:39:12;;;;;;;1.50;1.40;;;;;;;;;;1585846;29;21923;-64
2022/01/25 12:40:33;;;;;;;1.40;1.30;;;;;;;;;;1596522;29;22609;-65
2022/01/25 12:41:30;;;;;;;;;;;;;;;;;;1590841;29;23092;-64
2022/01/25 12:42:32;;;;;;;1.80;1.70;;;;;;;;;;1592763;29;22717;-68
2022/01/25 12:43:33;;;;;;;3.75;1.75;;;;;;;;;;1591927;29;21967;-61
2022/01/25 12:44:26;;;;;;;2.35;2.15;;;;;;;;;;1566344;29;21863;-64
2022/01/25 12:45:20;;;;;;;1.55;1.45;;;;;;;;;;1587583;29;21798;-64
2022/01/25 12:46:19;;;;;;;1.65;1.55;;;;;;;;;;1596237;29;22204;-65
2022/01/25 12:47:11;;;;;;;3.63;1.20;;;;;;;;;;1595026;29;23925;-63
2022/01/25 12:48:08;;;;;;;1.88;1.30;;;;;;;;;;1589480;29;22114;-64
2022/01/25 12:49:07;;;;;;;1.60;1.50;;;;;;;;;;1585868;29;22041;-61
2022/01/25 12:50:00;;;;;;;1.52;1.30;;;;;;;;;;1584863;29;22203;-64
2022/01/25 12:50:57;;;;;;;1.48;1.38;;;;;;;;;;1591135;29;22405;-64
2022/01/25 12:51:52;;;;;;;1.13;1.13;;;;;;;;;;1582091;29;22119;-65
2022/01/25 12:52:46;;;;;;;1.30;1.20;;;;;;;;;;1592821;29;22492;-63
2022/01/25 12:53:46;;;;;;;3.65;1.40;;;;;;;;;;1597287;29;22507;-66
2022/01/25 12:54:40;;;;;;;2.08;1.15;;;;;;;;;;1605399;29;22510;-64
2022/01/25 12:55:38;;;;;;;1.42;1.33;;;;;;;;;;1587717;29;22075;-64
2022/01/25 12:56:35;;;;;;;4.38;1.50;;;;;;;;;;1592422;29;23082;-64
2022/01/25 12:57:28;;;;;;;1.25;1.25;;;;;;;;;;1594406;29;24903;-62
2022/01/25 12:58:25;;;;;;;3.47;1.05;;;;;;;;;;1599949;29;22137;-64
2022/01/25 12:59:22;;;;;;;1.70;1.60;;;;;;;;;;1601312;29;22020;-63
2022/01/25 13:00:15;;;;;;;1.40;1.30;;;;;;;;;;1595063;29;22191;-62
2022/01/25 13:01:12;;;;;;;1.65;1.55;;;;;;;;;;1581825;29;22298;-61
2022/01/25 13:02:05;;;;;;;1.35;1.27;;;;;;;;;;1594973;29;22695;-62
2022/01/25 13:03:31;;;;;;;1.75;1.65;;;;;;;;;;1584203;29;22655;-62
2022/01/25 13:04:24;;;;;;;1.52;1.42;;;;;;;;;;1580735;29;21952;-63
2022/01/25 13:05:20;;;;;;;1.55;1.45;;;;;;;;;;1591091;29;21935;-64
2022/01/25 13:06:15;;;;;;;1.40;1.35;;;;;;;;;;1599324;29;21823;-63
2022/01/25 13:07:07;;;;;;;1.98;1.48;;;;;;;;;;1599115;29;21924;-65
2022/01/25 13:08:25;;;;;;;3.70;1.73;;;;;;;;;;1598965;29;21784;-61
2022/01/25 13:09:27;;;;;;;1.63;1.52;;;;;;;;;;1611082;29;22528;-62
2022/01/25 13:10:24;;;;;;;1.95;1.85;;;;;;;;;;1612994;29;26672;-63
2022/01/25 13:11:38;;;;;;;1.92;1.83;;;;;;;;;;1607005;29;22677;-61
2022/01/25 13:12:36;;;;;;;1.55;1.45;;;;;;;;;;1606899;29;22758;-61
2022/01/25 13:13:44;;;;;;;1.80;1.70;;;;;;;;;;1609290;29;21707;-63
2022/01/25 13:14:49;;;;;;;2.03;1.80;;;;;;;;;;1575257;29;22877;-64
2022/01/25 13:15:52;;;;;;;1.65;1.55;;;;;;;;;;1604235;29;22040;-64
2022/01/25 13:16:51;;;;;;;1.60;1.50;;;;;;;;;;1600774;29;22345;-63
2022/01/25 13:17:46;;;;;;;2.53;1.40;;;;;;;;;;1602991;29;22549;-63
2022/01/25 13:18:42;;;;;;;1.70;1.60;;;;;;;;;;1592440;29;21964;-62
2022/01/25 13:19:39;;;;;;;1.75;1.65;;;;;;;;;;1593482;29;22289;-63
2022/01/25 13:20:31;;;;;;;1.92;1.83;;;;;;;;;;1596477;29;21811;-63
2022/01/25 13:21:27;;;;;;;1.65;1.55;;;;;;;;;;1573193;29;23499;-62
2022/01/25 13:22:28;;;;;;;1.98;1.83;;;;;;;;;;1580865;29;22252;-63
2022/01/25 13:23:20;;;;;;;1.63;1.52;;;;;;;;;;1595683;29;21752;-59
2022/01/25 13:24:17;;;;;;;1.70;1.60;;;;;;;;;;1578869;29;22246;-62
2022/01/25 13:25:25;;;;;;;2.42;1.83;;;;;;;;;;1578119;29;22324;-63
2022/01/25 13:26:20;;;;;;;1.95;1.85;;;;;;;;;;1601723;29;22345;-67
2022/01/25 13:27:16;;;;;;;1.77;1.67;;;;;;;;;;1606886;29;21682;-64
2022/01/25 13:28:21;;;;;;;1.80;1.70;;;;;;;;;;1612935;29;22316;-61
2022/01/25 16:45:18;;;;;;;2.83;2.63;;;;;;;;;;1446805;33;22670;-60
2022/01/25 16:46:11;;;;;;;2.85;2.75;;;;;;;;;;1663553;29;21716;-60
2022/01/25 16:47:04;;;;;;;2.30;2.20;;;;;;;;;;1659051;29;23287;-62
2022/01/25 16:47:56;;;;;;;2.75;2.55;;;;;;;;;;1658414;29;21842;-60
2022/01/25 16:48:49;;;;;;;2.88;2.70;;;;;;;;;;1652837;29;21890;-61
2022/01/25 16:49:42;;;;;;;2.72;2.53;;;;;;;;;;1652873;29;23362;-60
2022/01/25 16:50:40;;;;;;;2.58;2.38;;;;;;;;;;1655381;29;22167;-61
2022/01/25 16:51:32;;;;;;;2.10;2.00;;;;;;;;;;1657900;29;21742;-60
2022/01/25 16:52:24;;;;;;;2.42;2.33;;;;;;;;;;1658445;29;22032;-59
2022/01/25 16:53:17;;;;;;;2.55;2.35;;;;;;;;;;1655602;29;21693;-64
2022/01/25 16:54:10;;;;;;;2.67;2.50;;;;;;;;;;1661885;29;21847;-62
2022/01/25 16:55:02;;;;;;;3.95;2.75;;;;;;;;;;1663105;29;21854;-64
2022/01/25 16:55:54;;;;;;;2.20;2.10;;;;;;;;;;1664150;29;21682;-59
2022/01/25 16:56:46;;;;;;;2.28;2.17;;;;;;;;;;1661380;29;21713;-58
2022/01/25 16:57:39;;;;;;;2.72;2.53;;;;;;;;;;1658679;29;22270;-60
2022/01/25 16:58:32;;;;;;;2.40;2.30;;;;;;;;;;1664081;29;21696;-60
2022/01/25 16:59:25;;;;;;;2.38;2.17;;;;;;;;;;1663248;29;21726;-58
2022/01/25 17:00:19;;;;;;;2.15;2.05;;;;;;;;;;1663764;29;21674;-61
2022/01/25 17:01:12;;;;;;;2.50;2.40;;;;;;;;;;1660977;29;21742;-67
2022/01/25 17:02:08;;;;;;;2.25;2.13;;;;;;;;;;1655792;29;22522;-63
2022/01/25 17:03:01;;;;;;;2.33;2.20;;;;;;;;;;1654518;29;21565;-63
2022/01/25 17:03:54;;;;;;;3.03;2.10;;;;;;;;;;1650470;29;21980;-59
2022/01/25 17:04:46;;;;;;;2.33;2.15;;;;;;;;;;1654073;29;21686;-54
2022/01/25 17:05:39;;;;;;;2.30;2.17;;;;;;;;;;1662973;29;21711;-53
2022/01/25 17:06:31;;;;;;;2.50;2.30;;;;;;;;;;1663733;29;21695;-60
2022/01/25 17:07:24;;;;;;;2.22;2.13;;;;;;;;;;1662410;29;22149;-62
2022/01/25 17:08:17;;;;;;;2.13;2.03;;;;;;;;;;1661008;29;21658;-57
2022/01/25 17:09:10;;;;;;;2.30;2.20;;;;;;;;;;1665835;29;21616;-58
2022/01/25 17:10:01;;;;;;;2.30;2.20;;;;;;;;;;1664771;29;22190;-50
2022/01/25 17:10:54;;;;;;;2.10;2.00;;;;;;;;;;1656779;29;22184;-56
2022/01/25 17:11:51;;;;;;;1.98;1.88;;;;;;;;;;1653176;29;22374;-59
2022/01/25 17:12:43;;;;;;;2.83;2.20;;;;;;;;;;1651964;29;22116;-59
2022/01/25 17:13:36;;;;;;;1.90;1.80;;;;;;;;;;1658325;29;21991;-58
2022/01/25 17:14:30;;;;;;;2.20;2.10;;;;;;;;;;1658959;29;21727;-59
2022/01/25 17:15:23;;;;;;;2.10;2.00;;;;;;;;;;1655319;29;22085;-58
2022/01/25 17:16:17;;;;;;;1.75;1.65;;;;;;;;;;1656766;29;21669;-59
2022/01/25 17:17:08;;;;;;;2.95;2.75;;;;;;;;;;1660805;29;21693;-59
2022/01/25 17:18:01;;;;;;;2.33;2.22;;;;;;;;;;1650575;29;21629;-58
2022/01/25 17:18:55;;;;;;;2.10;2.00;;;;;;;;;;1653847;29;22272;-58
2022/01/25 17:19:48;;;;;;;1.90;1.80;;;;;;;;;;1662244;29;21803;-57
2022/01/25 17:20:41;;;;;;;2.10;2.00;;;;;;;;;;1661834;29;22119;-55
2022/01/25 17:21:33;;;;;;;2.30;2.10;;;;;;;;;;1659647;29;21695;-57
2022/01/25 17:22:26;;;;;;;2.00;1.90;;;;;;;;;;1660904;29;22658;-59
2022/01/25 17:23:19;;;;;;;1.80;1.70;;;;;;;;;;1655538;29;22436;-58
2022/01/25 17:24:11;;;;;;;2.08;1.98;;;;;;;;;;1657910;29;22482;-58
2022/01/25 17:25:04;;;;;;;2.08;1.98;;;;;;;;;;1662803;29;22175;-57
2022/01/25 17:25:56;;;;;;;1.80;1.70;;;;;;;;;;1663324;29;22011;-56
2022/01/25 17:26:49;;;;;;;1.73;1.63;;;;;;;;;;1653329;29;22224;-57
2022/01/25 17:27:41;;;;;;;2.17;1.98;;;;;;;;;;1653074;29;22447;-57
2022/01/25 17:28:33;;;;;;;1.83;1.73;;;;;;;;;;1660495;29;21957;-57
2022/01/25 17:29:25;;;;;;;1.60;1.50;;;;;;;;;;1662013;29;22140;-52
2022/01/25 17:30:18;;;;;;;2.45;1.73;;;;;;;;;;1663427;29;21657;-57
2022/01/25 17:31:12;;;;;;;1.80;1.70;;;;;;;;;;1664909;29;22184;-58
2022/01/25 17:32:05;;;;;;;2.00;1.90;;;;;;;;;;1663434;29;22401;-57
2022/01/25 17:32:57;;;;;;;1.98;1.88;;;;;;;;;;1663002;29;21812;-60
2022/01/25 17:33:49;;;;;;;1.55;1.45;;;;;;;;;;1662234;29;22370;-57
2022/01/25 17:34:42;;;;;;;1.67;1.58;;;;;;;;;;1662552;29;21661;-53
2022/01/25 17:35:34;;;;;;;1.65;1.55;;;;;;;;;;1661946;29;22134;-55
2022/01/25 17:36:26;;;;;;;3.10;1.70;;;;;;;;;;1664066;29;21827;-55
2022/01/25 17:37:18;;;;;;;1.48;1.40;;;;;;;;;;1663875;29;21709;-56
2022/01/25 17:38:11;;;;;;;1.92;1.58;;;;;;;;;;1663690;29;22265;-59
2022/01/25 17:39:03;;;;;;;1.63;1.50;;;;;;;;;;1663771;29;21678;-56
2022/01/25 17:39:57;;;;;;;1.65;1.55;;;;;;;;;;1664971;29;21786;-58
2022/01/25 17:40:49;;;;;;;1.52;1.42;;;;;;;;;;1663284;29;21829;-59
2022/01/25 17:41:42;;;;;;;1.55;1.45;;;;;;;;;;1665133;29;22126;-59
2022/01/25 17:42:34;;;;;;;2.45;1.42;;;;;;;;;;1665098;29;22055;-59
2022/01/25 17:43:27;;;;;;;1.40;1.30;;;;;;;;;;1665188;29;21681;-61
2022/01/25 17:44:19;;;;;;;1.55;1.45;;;;;;;;;;1668106;29;22355;-59
2022/01/25 17:45:12;;;;;;;1.60;1.50;;;;;;;;;;1659227;29;22031;-61
2022/01/25 17:46:05;;;;;;;1.92;1.50;;;;;;;;;;1659480;29;22252;-59
2022/01/25 17:46:58;;;;;;;1.55;1.45;;;;;;;;;;1663134;29;21994;-56
2022/01/25 17:47:51;;;;;;;1.88;1.27;;;;;;;;;;1664293;29;22377;-58
2022/01/25 17:48:43;;;;;;;1.42;1.33;;;;;;;;;;1666772;29;21687;-58
2022/01/25 17:49:36;;;;;;;1.55;1.45;;;;;;;;;;1668053;29;21970;-58
2022/01/25 17:50:27;;;;;;;1.60;1.50;;;;;;;;;;1667442;29;21889;-58
2022/01/25 17:51:20;;;;;;;1.35;1.30;;;;;;;;;;1666038;29;22316;-58
2022/01/25 17:52:12;;;;;;;1.77;1.67;;;;;;;;;;1668776;29;22104;-58
2022/01/25 17:53:05;;;;;;;1.73;1.63;;;;;;;;;;1664871;29;21683;-58
2022/01/25 17:53:56;;;;;;;1.50;1.40;;;;;;;;;;1664728;29;21685;-58
2022/01/25 17:54:49;;;;;;;1.67;1.58;;;;;;;;;;1663735;29;21656;-57
2022/01/25 17:55:41;;;;;;;2.05;1.95;;;;;;;;;;1659038;29;22352;-58
2022/01/25 17:56:35;;;;;;;1.98;1.88;;;;;;;;;;1647947;29;22125;-56
2022/01/25 17:57:28;;;;;;;1.98;1.88;;;;;;;;;;1654727;29;21791;-57
2022/01/25 17:58:21;;;;;;;1.73;1.63;;;;;;;;;;1661588;29;21683;-57
2022/01/25 17:59:13;;;;;;;1.92;1.83;;;;;;;;;;1659733;29;21842;-58
2022/01/25 18:00:10;;;;;;;3.05;1.77;;;;;;;;;;1660147;29;22239;-59
2022/01/25 18:01:03;;;;;;;2.35;2.15;;;;;;;;;;1662176;29;21695;-56
